Time;durP1;ratioP1;P1;durP2;ratioP2;P2;SDS_P1;SDS_P2;PMS_P1;PMS_P2;Temp;Humidity;BMP_temperature;BMP_pressure;BME280_temperature;BME280_humidity;BME280_pressure;Samples;Min_cycle;Max_cycle;Signal;HPM_P1;HPM_P2
2022/02/25 00:01:56;;;;;;;1.53;0.30;;;;;;;1.13;85.96;99755.28;8277900;28;20080;-73
2022/02/25 00:05:58;;;;;;;2.50;0.40;;;;;;;1.13;86.48;99751.88;8280985;28;20104;-73
2022/02/25 00:09:59;;;;;;;2.67;0.60;;;;;;;1.07;86.54;99756.72;8281496;28;20054;-73
2022/02/25 00:14:01;;;;;;;1.50;0.30;;;;;;;1.03;87.02;99757.41;8280809;28;20057;-73
2022/02/25 00:18:02;;;;;;;2.00;0.40;;;;;;;0.98;87.37;99769.16;8277694;28;20050;-73
2022/02/25 00:22:04;;;;;;;1.27;0.30;;;;;;;0.97;87.52;99773.41;8281885;28;20536;-73
2022/02/25 00:26:06;;;;;;;1.80;0.33;;;;;;;0.87;87.08;99777.25;8281429;28;20506;-73
2022/02/25 00:30:09;;;;;;;1.00;0.53;;;;;;;0.85;87.73;99783.13;8278339;28;20049;-73
2022/02/25 00:34:11;;;;;;;1.47;0.50;;;;;;;0.81;87.73;99791.50;8635806;22;20337;-73
2022/02/25 00:38:12;;;;;;;1.23;0.40;;;;;;;0.70;88.02;99796.16;8292853;28;20049;-73
2022/02/25 00:42:13;;;;;;;5.20;1.00;;;;;;;0.67;88.32;99802.81;8310090;28;20153;-73
2022/02/25 00:46:15;;;;;;;5.63;1.97;;;;;;;0.68;88.62;99810.53;8301476;28;20061;-73
2022/02/25 00:50:16;;;;;;;4.03;1.40;;;;;;;0.68;88.62;99818.22;8306822;28;20087;-73
2022/02/25 00:54:18;;;;;;;6.17;2.00;;;;;;;0.66;88.58;99819.84;8301448;28;20464;-73
2022/02/25 00:58:20;;;;;;;4.40;1.60;;;;;;;0.69;88.51;99817.41;8301878;28;20684;-73
2022/02/25 01:02:22;;;;;;;5.28;1.40;;;;;;;0.69;88.36;99825.06;8287754;28;20696;-73
2022/02/25 01:06:24;;;;;;;5.33;1.90;;;;;;;0.69;88.24;99831.88;8303563;28;20049;-73
2022/02/25 01:10:26;;;;;;;4.07;1.33;;;;;;;0.63;88.39;99832.50;8308024;28;20049;-73
2022/02/25 01:14:27;;;;;;;4.87;1.50;;;;;;;0.63;88.50;99837.59;8308134;28;20828;-73
2022/02/25 01:18:28;;;;;;;3.03;1.20;;;;;;;0.62;88.79;99842.66;8308629;28;20088;-73
2022/02/25 01:22:30;;;;;;;5.40;1.50;;;;;;;0.56;88.89;99846.69;8308426;28;20701;-72
2022/02/25 01:26:32;;;;;;;3.43;1.07;;;;;;;0.54;88.73;99844.91;8308814;28;20182;-72
2022/02/25 01:30:34;;;;;;;7.25;2.03;;;;;;;0.51;88.50;99843.06;8306733;28;20056;-73
2022/02/25 01:34:36;;;;;;;5.43;0.90;;;;;;;0.48;88.93;99854.81;8298153;28;20077;-73
2022/02/25 01:38:38;;;;;;;3.10;0.88;;;;;;;0.50;89.10;99854.09;8293071;28;20124;-73
2022/02/25 01:42:53;;;;;;;6.07;1.63;;;;;;;0.54;89.20;99850.00;8309399;28;20816;-73
2022/02/25 01:46:57;;;;;;;3.60;0.70;;;;;;;0.60;89.75;99853.69;8305129;28;20652;-73
2022/02/25 01:50:58;;;;;;;2.67;0.60;;;;;;;0.70;89.29;99849.81;8306787;28;20049;-73
2022/02/25 01:55:00;;;;;;;3.67;0.73;;;;;;;0.80;89.53;99864.75;8310585;28;20050;-73
2022/02/25 01:59:01;;;;;;;3.83;0.73;;;;;;;0.91;89.01;99857.53;8313320;28;20132;-73
2022/02/25 02:03:04;;;;;;;2.10;0.57;;;;;;;0.99;89.41;99857.81;8310278;28;20710;-73
2022/02/25 02:07:08;;;;;;;3.20;0.47;;;;;;;1.09;88.54;99860.84;8317271;28;20045;-73
2022/02/25 02:11:09;;;;;;;1.53;0.60;;;;;;;1.12;88.67;99857.53;8303009;28;20049;-73
2022/02/25 02:15:11;;;;;;;2.80;0.60;;;;;;;1.17;88.25;99863.69;8318057;28;20156;-73
2022/02/25 02:19:15;;;;;;;5.33;0.83;;;;;;;1.17;87.69;99864.56;8314075;28;20659;-73
2022/02/25 02:23:16;;;;;;;1.40;0.30;;;;;;;1.22;87.55;99869.84;8311077;28;20055;-73
2022/02/25 02:27:18;;;;;;;7.80;1.23;;;;;;;1.24;86.76;99864.78;8294566;28;20050;-73
2022/02/25 02:31:19;;;;;;;8.07;0.60;;;;;;;1.23;86.32;99869.03;8304821;28;20055;-72
2022/02/25 02:35:21;;;;;;;4.15;0.75;;;;;;;1.19;86.18;99862.94;8316906;28;20084;-73
2022/02/25 02:39:22;;;;;;;6.77;0.90;;;;;;;1.18;85.99;99862.88;8312086;28;20132;-73
2022/02/25 02:43:24;;;;;;;5.43;0.60;;;;;;;1.17;85.72;99873.91;8320190;28;20541;-72
2022/02/25 02:47:25;;;;;;;1.07;0.40;;;;;;;1.11;85.58;99874.56;8293419;28;20513;-73
2022/02/25 02:51:29;;;;;;;6.37;1.20;;;;;;;1.04;85.59;99877.66;8312431;28;20393;-73
2022/02/25 02:55:30;;;;;;;3.60;0.63;;;;;;;0.99;85.82;99879.16;8316264;28;20046;-72
2022/02/25 02:59:32;;;;;;;5.23;0.67;;;;;;;0.96;86.46;99879.03;8316317;28;20668;-73
2022/02/25 03:03:33;;;;;;;5.37;0.47;;;;;;;0.88;86.14;99888.03;8310866;28;20096;-73
2022/02/25 03:07:36;;;;;;;3.47;0.53;;;;;;;0.88;86.26;99883.81;8314204;28;20453;-73
2022/02/25 03:11:38;;;;;;;5.88;0.80;;;;;;;0.81;86.27;99891.16;8317049;28;20700;-73
2022/02/25 03:15:40;;;;;;;5.40;0.60;;;;;;;0.73;86.57;99893.41;8299665;28;20819;-73
2022/02/25 03:19:43;;;;;;;2.35;0.40;;;;;;;0.72;86.95;99890.75;8299964;28;20055;-72
2022/02/25 03:23:46;;;;;;;2.03;0.87;;;;;;;0.77;86.88;99896.97;8314107;28;20136;-73
2022/02/25 03:27:48;;;;;;;1.27;0.53;;;;;;;0.72;86.84;99904.44;8304509;28;20140;-73
2022/02/25 03:31:50;;;;;;;3.03;0.45;;;;;;;0.66;86.77;99898.19;8314701;28;20612;-73
2022/02/25 03:35:51;;;;;;;3.13;0.50;;;;;;;0.61;87.13;99903.09;8318061;28;20057;-73
2022/02/25 03:39:52;;;;;;;5.00;0.60;;;;;;;0.56;87.14;99912.25;8322864;28;20739;-73
2022/02/25 03:43:55;;;;;;;4.03;0.45;;;;;;;0.53;87.13;99910.41;8316955;28;20053;-73
2022/02/25 03:47:56;;;;;;;3.23;0.63;;;;;;;0.43;87.72;99905.72;8317462;28;20056;-73
2022/02/25 03:51:58;;;;;;;3.57;0.40;;;;;;;0.38;88.29;99909.75;8315618;28;20072;-73
2022/02/25 03:55:59;;;;;;;3.23;1.00;;;;;;;0.35;88.01;99911.28;8320390;28;20066;-73
2022/02/25 04:00:01;;;;;;;3.60;1.07;;;;;;;0.36;87.98;99915.59;8303116;28;20161;-73
2022/02/25 04:04:04;;;;;;;3.77;0.70;;;;;;;0.33;87.61;99929.09;8314946;28;20115;-73
2022/02/25 04:08:05;;;;;;;3.53;0.70;;;;;;;0.30;87.60;99928.97;8312622;28;20042;-73
2022/02/25 04:12:07;;;;;;;3.97;0.90;;;;;;;0.20;87.64;99926.81;8313802;28;20088;-73
2022/02/25 04:16:09;;;;;;;1.27;0.52;;;;;;;0.15;88.53;99933.38;8313984;28;20071;-73
2022/02/25 04:20:11;;;;;;;4.20;0.70;;;;;;;0.04;88.41;99940.56;8315295;28;20072;-73
2022/02/25 04:24:13;;;;;;;4.25;0.93;;;;;;;0.04;88.95;99942.25;8309977;28;20056;-73
2022/02/25 04:28:16;;;;;;;2.15;0.93;;;;;;;0.06;89.38;99938.94;8311210;28;20147;-73
2022/02/25 04:32:17;;;;;;;5.47;0.50;;;;;;;0.11;89.65;99928.94;8311752;28;20744;-73
2022/02/25 04:36:22;;;;;;;4.13;0.70;;;;;;;0.16;90.16;99930.88;8316055;28;20068;-73
2022/02/25 04:40:24;;;;;;;4.00;0.57;;;;;;;0.18;89.70;99936.06;8295011;28;20056;-73
2022/02/25 04:44:26;;;;;;;3.25;0.50;;;;;;;0.17;89.93;99936.88;8320714;28;20091;-73
2022/02/25 04:48:27;;;;;;;3.97;0.57;;;;;;;0.17;89.78;99939.41;8314110;28;20072;-73
2022/02/25 04:52:29;;;;;;;4.83;1.27;;;;;;;0.15;89.79;99943.59;8319509;28;20133;-73
2022/02/25 04:56:30;;;;;;;1.00;0.40;;;;;;;0.12;89.73;99940.91;8320123;28;20119;-73
2022/02/25 05:00:32;;;;;;;2.17;0.60;;;;;;;0.07;89.39;99948.34;8313523;28;20068;-73
2022/02/25 05:04:34;;;;;;;4.22;0.70;;;;;;;0.16;89.65;99951.31;8320660;28;20107;-72
2022/02/25 05:08:36;;;;;;;5.88;0.90;;;;;;;0.19;89.91;99948.06;8301975;28;20144;-73
2022/02/25 05:12:38;;;;;;;3.23;1.57;;;;;;;0.20;89.64;99950.66;8315497;28;20088;-73
2022/02/25 05:20:59;;;;;;;2.53;0.70;;;;;;;0.38;89.58;99954.88;8318528;28;20085;-73
2022/02/25 05:25:01;;;;;;;4.40;0.80;;;;;;;0.43;89.47;99964.47;8304716;28;20885;-73
2022/02/25 05:29:03;;;;;;;3.92;0.65;;;;;;;0.42;89.52;99964.41;8321504;28;20481;-73
2022/02/25 05:33:04;;;;;;;8.40;0.80;;;;;;;0.40;89.11;99964.34;8313572;28;20140;-73
2022/02/25 05:37:06;;;;;;;3.50;0.70;;;;;;;0.33;88.72;99959.75;8315209;28;20045;-73
2022/02/25 05:41:08;;;;;;;2.33;0.90;;;;;;;0.28;88.91;99964.66;8320727;28;20137;-73
2022/02/25 05:45:09;;;;;;;2.27;0.70;;;;;;;0.33;89.02;99981.84;8319793;28;20049;-72
2022/02/25 05:49:11;;;;;;;4.50;0.57;;;;;;;0.33;89.16;99992.06;8313817;28;20652;-73
2022/02/25 05:53:12;;;;;;;4.57;0.90;;;;;;;0.26;88.79;99989.25;8319617;28;20057;-73
2022/02/25 05:57:15;;;;;;;2.90;0.60;;;;;;;0.27;88.90;99997.78;8313481;28;20067;-73
2022/02/25 06:01:17;;;;;;;5.70;1.00;;;;;;;0.26;88.81;100002.00;8309231;28;20161;-73
2022/02/25 06:05:19;;;;;;;2.67;0.80;;;;;;;0.40;89.22;100006.88;8297461;28;20057;-72
2022/02/25 06:09:21;;;;;;;6.10;0.65;;;;;;;0.46;88.85;100010.59;8319698;28;20052;-72
2022/02/25 06:13:22;;;;;;;4.67;1.00;;;;;;;0.40;88.41;100015.44;8294515;28;20058;-73
2022/02/25 06:17:24;;;;;;;6.77;0.83;;;;;;;0.41;88.35;100017.19;8312950;28;20077;-72
2022/02/25 06:21:26;;;;;;;6.30;0.93;;;;;;;0.44;88.78;100024.09;8315016;28;20073;-73
2022/02/25 06:25:27;;;;;;;4.97;1.17;;;;;;;0.42;87.92;100030.81;8304275;28;20502;-72
2022/02/25 06:29:29;;;;;;;2.03;0.87;;;;;;;0.36;88.00;100035.63;8313690;28;20052;-73
2022/02/25 06:33:30;;;;;;;3.90;1.07;;;;;;;0.37;88.15;100043.38;8309538;28;20137;-72
2022/02/25 06:37:32;;;;;;;4.67;1.07;;;;;;;0.40;88.19;100048.63;8313845;28;20087;-72
2022/02/25 06:41:34;;;;;;;4.57;0.70;;;;;;;0.34;88.05;100053.44;8310630;28;20144;-74
2022/02/25 06:45:36;;;;;;;1.40;0.70;;;;;;;0.40;88.58;100058.84;8315389;28;20041;-73
2022/02/25 06:49:39;;;;;;;2.07;0.80;;;;;;;0.48;89.07;100061.75;8303247;28;20496;-73
2022/02/25 06:53:42;;;;;;;5.40;0.60;;;;;;;0.54;88.49;100064.59;8315820;28;20664;-72
2022/02/25 06:57:44;;;;;;;3.43;0.70;;;;;;;0.61;88.75;100066.63;8315947;28;20140;-73
2022/02/25 07:01:46;;;;;;;6.73;1.00;;;;;;;0.67;88.38;100066.91;8313238;28;20144;-72
2022/02/25 07:05:48;;;;;;;4.90;1.17;;;;;;;0.73;88.23;100079.97;8291548;28;20057;-72
2022/02/25 07:09:49;;;;;;;3.40;1.10;;;;;;;0.83;88.03;100081.25;8311168;28;20531;-72
2022/02/25 07:13:51;;;;;;;8.07;1.30;;;;;;;0.89;88.06;100079.81;8314410;28;20434;-74
2022/02/25 07:17:53;;;;;;;6.27;1.53;;;;;;;1.02;87.82;100083.81;8313959;28;20686;-74
2022/02/25 07:21:54;;;;;;;5.33;1.57;;;;;;;1.16;87.79;100090.44;8315192;28;20067;-74
2022/02/25 07:25:56;;;;;;;4.60;0.97;;;;;;;1.32;87.10;100086.00;8310717;28;20053;-72
2022/02/25 07:29:57;;;;;;;2.00;1.27;;;;;;;1.43;86.06;100090.75;8305198;28;20465;-73
2022/02/25 07:34:00;;;;;;;1.85;0.75;;;;;;;1.58;86.39;100087.97;8291073;28;20060;-73
2022/02/25 07:38:02;;;;;;;6.03;1.17;;;;;;;1.77;85.62;100099.84;8306880;28;20912;-72
2022/02/25 07:42:04;;;;;;;5.63;0.65;;;;;;;1.96;84.72;100096.38;8304143;28;20053;-75
2022/02/25 07:46:05;;;;;;;5.97;1.03;;;;;;;2.17;83.99;100099.81;8305744;28;20064;-73
2022/02/25 07:50:14;;;;;;;5.53;0.73;;;;;;;2.38;82.96;100115.19;8311222;28;20158;-73
2022/02/25 07:54:16;;;;;;;5.67;1.03;;;;;;;2.64;81.29;100116.19;8315722;28;20373;-72
2022/02/25 07:58:18;;;;;;;3.28;0.73;;;;;;;2.98;80.60;100105.53;8307778;28;20045;-73
2022/02/25 08:02:19;;;;;;;6.63;0.93;;;;;;;3.28;79.18;100105.78;8298287;28;20433;-72
2022/02/25 08:06:21;;;;;;;5.93;0.67;;;;;;;3.51;77.90;100104.91;8302774;28;20137;-73
2022/02/25 08:10:22;;;;;;;5.40;0.60;;;;;;;3.94;77.33;100104.66;8306842;28;20096;-73
2022/02/25 08:14:24;;;;;;;3.30;0.83;;;;;;;4.01;75.47;100107.44;8302236;28;20053;-73
2022/02/25 08:18:26;;;;;;;4.40;1.10;;;;;;;4.25;73.95;100110.81;8306236;28;20060;-73
2022/02/25 08:22:28;;;;;;;9.17;1.60;;;;;;;4.46;72.70;100116.63;8312251;28;20369;-74
2022/02/25 08:26:30;;;;;;;6.43;1.35;;;;;;;4.68;72.24;100115.63;8312203;28;20057;-73
2022/02/25 08:30:32;;;;;;;5.13;1.13;;;;;;;4.97;71.38;100116.47;8305601;28;20056;-73
2022/02/25 08:34:33;;;;;;;5.00;0.73;;;;;;;5.15;71.11;100113.56;8294154;28;20184;-73
2022/02/25 08:38:35;;;;;;;6.93;1.13;;;;;;;5.07;70.60;100121.09;8307511;28;20053;-73
2022/02/25 08:42:37;;;;;;;2.30;0.80;;;;;;;4.99;70.35;100130.25;8308856;28;20049;-74
2022/02/25 08:46:39;;;;;;;2.60;0.75;;;;;;;4.92;71.17;100124.91;8309480;28;20089;-73
2022/02/25 08:50:41;;;;;;;6.50;0.80;;;;;;;5.08;70.42;100130.56;8296406;28;20056;-73
2022/02/25 08:54:42;;;;;;;5.28;0.88;;;;;;;5.11;70.52;100130.63;8296989;28;20152;-73
2022/02/25 08:58:44;;;;;;;4.73;0.83;;;;;;;4.98;71.39;100141.38;8324421;28;20080;-73
2022/02/25 09:02:47;;;;;;;3.03;0.80;;;;;;;4.76;70.94;100137.28;8302323;28;20448;-73
2022/02/25 09:06:49;;;;;;;2.17;0.70;;;;;;;4.67;72.61;100138.69;8309695;28;20054;-73
2022/02/25 09:10:52;;;;;;;7.60;1.23;;;;;;;4.94;72.51;100139.56;8302950;28;20447;-73
2022/02/25 09:14:54;;;;;;;6.13;1.53;;;;;;;5.43;72.44;100129.00;8308432;28;20080;-73
2022/02/25 09:18:56;;;;;;;5.38;1.35;;;;;;;5.80;71.08;100135.13;8307013;28;20339;-73
2022/02/25 09:22:58;;;;;;;4.23;0.70;;;;;;;5.93;69.68;100120.91;8303141;28;20060;-73
2022/02/25 09:27:00;;;;;;;6.90;1.10;;;;;;;6.05;69.55;100128.94;8303634;28;20401;-73
2022/02/25 09:31:02;;;;;;;1.13;0.60;;;;;;;6.20;69.29;100124.19;8304698;28;20294;-73
2022/02/25 09:35:04;;;;;;;3.50;0.80;;;;;;;6.21;68.79;100133.66;8305804;28;20618;-73
2022/02/25 09:39:06;;;;;;;3.22;0.90;;;;;;;5.91;67.12;100132.84;8302537;28;20060;-73
2022/02/25 09:43:08;;;;;;;6.10;1.00;;;;;;;5.63;67.86;100142.41;8287075;28;20136;-73
2022/02/25 09:47:09;;;;;;;5.97;1.00;;;;;;;5.47;69.19;100135.97;8304191;28;20164;-73
2022/02/25 09:51:10;;;;;;;4.50;0.80;;;;;;;5.78;69.09;100143.66;8291025;28;20046;-73
2022/02/25 09:55:27;;;;;;;10.87;1.27;;;;;;;6.17;69.73;100144.72;8304608;28;20049;-73
2022/02/25 09:59:29;;;;;;;2.97;1.53;;;;;;;6.03;68.20;100149.53;8307064;28;20238;-74
2022/02/25 10:03:33;;;;;;;5.13;0.80;;;;;;;5.82;67.45;100158.38;8288413;28;20057;-74
2022/02/25 10:07:37;;;;;;;2.87;1.13;;;;;;;5.66;68.39;100169.97;8317824;28;20051;-74
2022/02/25 10:12:00;;;;;;;3.87;1.00;;;;;;;5.63;69.37;100170.75;8308385;28;20133;-74
2022/02/25 10:16:09;;;;;;;4.20;1.80;;;;;;;5.62;69.47;100171.59;8304446;28;20095;-73
2022/02/25 10:20:15;;;;;;;5.50;0.80;;;;;;;5.59;69.66;100178.34;8300261;28;20054;-73
2022/02/25 10:25:04;;;;;;;3.63;1.07;;;;;;;5.59;70.33;100186.97;8302982;28;20053;-74
2022/02/25 10:29:06;;;;;;;4.50;0.70;;;;;;;5.58;70.06;100182.63;8307206;28;20148;-74
2022/02/25 10:33:07;;;;;;;3.10;0.93;;;;;;;5.52;69.72;100187.59;8287905;28;20145;-74
2022/02/25 10:37:09;;;;;;;3.13;0.97;;;;;;;5.66;70.39;100191.44;8309106;28;20662;-74
2022/02/25 10:41:10;;;;;;;5.87;1.60;;;;;;;5.77;70.22;100189.19;8307258;28;20060;-75
2022/02/25 10:45:12;;;;;;;13.07;1.57;;;;;;;6.00;69.99;100185.53;8311595;28;20060;-74
2022/02/25 10:49:14;;;;;;;4.17;0.70;;;;;;;6.28;68.88;100178.50;8296465;28;20049;-74
2022/02/25 10:53:18;;;;;;;4.90;1.00;;;;;;;6.53;69.16;100180.88;8297066;28;20381;-74
2022/02/25 10:57:20;;;;;;;7.00;0.80;;;;;;;6.38;67.14;100182.22;8297517;28;20065;-74
2022/02/25 11:01:32;;;;;;;3.42;0.80;;;;;;;6.43;67.98;100173.72;8285832;28;20089;-73
2022/02/25 11:05:35;;;;;;;5.47;0.75;;;;;;;6.50;67.97;100162.75;8304325;28;20508;-74
2022/02/25 11:09:37;;;;;;;2.17;0.53;;;;;;;6.41;66.82;100174.53;8307176;28;20049;-73
2022/02/25 11:13:38;;;;;;;3.03;1.20;;;;;;;6.41;67.49;100169.38;8308058;28;20141;-73
2022/02/25 11:17:44;;;;;;;7.37;0.93;;;;;;;6.42;66.78;100177.16;8304343;28;20061;-73
2022/02/25 11:21:50;;;;;;;6.47;0.90;;;;;;;6.51;67.51;100177.41;8307101;28;20781;-73
2022/02/25 11:25:51;;;;;;;8.90;1.40;;;;;;;6.64;66.35;100173.38;8286236;28;20632;-73
2022/02/25 11:30:05;;;;;;;3.07;0.87;;;;;;;6.84;67.01;100177.31;8284424;28;20084;-73
2022/02/25 11:34:07;;;;;;;2.50;0.77;;;;;;;6.85;66.33;100176.50;8309014;28;20115;-73
2022/02/25 11:38:10;;;;;;;5.57;0.87;;;;;;;6.93;65.57;100180.09;8295891;28;20728;-73
2022/02/25 11:42:28;;;;;;;2.97;0.50;;;;;;;6.94;64.67;100191.31;8296470;28;20289;-73
2022/02/25 11:46:32;;;;;;;2.60;0.60;;;;;;;7.18;65.30;100188.38;8305974;28;20053;-74
2022/02/25 11:50:37;;;;;;;6.60;0.80;;;;;;;7.17;62.96;100191.81;8293203;28;20680;-73
2022/02/25 11:54:46;;;;;;;8.87;1.03;;;;;;;7.14;62.51;100194.31;8302264;28;20049;-73
2022/02/25 11:58:52;;;;;;;6.57;0.90;;;;;;;7.14;63.96;100191.75;8305426;28;20061;-73
2022/02/25 12:03:09;;;;;;;6.27;0.70;;;;;;;7.07;64.49;100205.38;8309024;28;20456;-73
2022/02/25 12:07:38;;;;;;;4.00;0.70;;;;;;;7.02;63.84;100205.28;8294580;28;20053;-73
2022/02/25 12:11:39;;;;;;;2.40;0.60;;;;;;;6.88;62.72;100214.41;8309771;28;20053;-73
2022/02/25 12:15:44;;;;;;;3.63;0.77;;;;;;;6.84;63.63;100216.03;8284652;28;20755;-73
2022/02/25 12:20:20;;;;;;;2.65;0.57;;;;;;;6.89;64.24;100214.44;8312235;28;20065;-73
2022/02/25 12:24:21;;;;;;;4.33;0.80;;;;;;;7.02;64.45;100217.31;8280728;28;20073;-73
2022/02/25 12:28:23;;;;;;;3.63;0.77;;;;;;;7.12;63.88;100214.97;8307981;28;20057;-73
2022/02/25 12:32:42;;;;;;;6.43;0.83;;;;;;;7.40;63.14;100213.88;8306344;28;20053;-73
2022/02/25 12:36:44;;;;;;;1.90;1.00;;;;;;;7.34;61.52;100210.25;8287116;28;20921;-73
2022/02/25 12:40:46;;;;;;;5.45;0.80;;;;;;;7.57;62.67;100209.06;8302844;28;20172;-73
2022/02/25 12:44:48;;;;;;;3.77;0.73;;;;;;;7.95;61.90;100209.81;8304681;28;20064;-73
2022/02/25 12:48:51;;;;;;;3.47;1.05;;;;;;;8.02;59.10;100214.25;8296067;28;20057;-73
2022/02/25 12:52:54;;;;;;;7.38;1.98;;;;;;;7.80;58.24;100207.81;8299346;28;20940;-74
2022/02/25 12:56:56;;;;;;;;;;;;;;;7.46;59.28;100208.81;8287118;28;20390;-73
2022/02/25 13:00:58;;;;;;;3.90;0.93;;;;;;;7.35;59.28;100215.47;8299152;28;20309;-73
2022/02/25 13:05:00;;;;;;;5.32;0.98;;;;;;;7.18;60.12;100209.94;8315335;28;20362;-73
2022/02/25 13:09:09;;;;;;;4.47;0.70;;;;;;;7.20;61.30;100217.72;8296074;28;20188;-73
2022/02/25 13:13:16;;;;;;;4.37;0.80;;;;;;;7.33;61.10;100219.72;8300627;28;20296;-74
2022/02/25 13:17:30;;;;;;;5.00;1.00;;;;;;;7.41;60.52;100218.19;8309323;28;20065;-73
2022/02/25 13:21:32;;;;;;;3.77;0.60;;;;;;;7.71;61.19;100217.94;8315861;28;20135;-73
2022/02/25 13:25:33;;;;;;;2.27;0.57;;;;;;;7.76;60.67;100221.50;8316454;28;20432;-73
2022/02/25 13:29:35;;;;;;;4.77;0.73;;;;;;;7.77;60.00;100219.81;8313925;28;20053;-73
2022/02/25 13:33:37;;;;;;;4.10;1.00;;;;;;;7.75;60.01;100217.19;8304737;28;20128;-73
2022/02/25 13:38:13;;;;;;;1.33;0.50;;;;;;;7.66;61.03;100223.88;8299362;28;20050;-73
2022/02/25 13:42:14;;;;;;;3.90;0.50;;;;;;;7.56;60.50;100222.81;8304398;28;20129;-73
2022/02/25 13:46:26;;;;;;;3.30;0.60;;;;;;;7.44;61.26;100215.66;8297186;28;20077;-73
2022/02/25 13:55:04;;;;;;;4.67;0.70;;;;;;;7.26;62.74;100229.06;8308809;28;20057;-73
2022/02/25 13:59:15;;;;;;;3.40;0.57;;;;;;;7.50;61.57;100215.78;8297329;28;20068;-73
2022/02/25 14:03:16;;;;;;;3.70;0.70;;;;;;;7.80;59.86;100209.50;8310968;28;20306;-74
2022/02/25 14:07:18;;;;;;;5.30;0.80;;;;;;;7.98;58.71;100211.59;8307120;28;20057;-73
2022/02/25 14:11:34;;;;;;;7.47;0.70;;;;;;;8.14;57.20;100216.22;8306089;28;20543;-73
2022/02/25 14:15:40;;;;;;;3.90;0.87;;;;;;;8.28;58.04;100206.13;8305327;28;20053;-73
2022/02/25 14:20:15;;;;;;;1.88;0.70;;;;;;;8.27;55.27;100199.22;8304732;28;20052;-73
2022/02/25 14:24:30;;;;;;;5.20;0.77;;;;;;;8.26;55.85;100205.19;8308341;28;20079;-73
2022/02/25 14:28:36;;;;;;;4.03;0.70;;;;;;;8.30;53.66;100199.25;8306823;28;20081;-73
2022/02/25 14:32:47;;;;;;;3.28;0.70;;;;;;;8.18;53.80;100203.34;8309424;28;20080;-73
2022/02/25 14:36:49;;;;;;;3.47;0.83;;;;;;;8.23;54.48;100182.72;8310661;28;20175;-73
2022/02/25 14:40:50;;;;;;;2.77;0.67;;;;;;;8.38;53.78;100192.50;8289929;28;20055;-73
2022/02/25 14:44:52;;;;;;;5.43;0.90;;;;;;;8.55;54.20;100193.66;8296483;28;20136;-73
2022/02/25 14:48:54;;;;;;;3.40;0.57;;;;;;;8.74;52.13;100197.44;8284952;28;20654;-74
2022/02/25 14:52:56;;;;;;;6.45;0.90;;;;;;;8.89;51.90;100191.63;8307761;28;20418;-73
2022/02/25 14:56:58;;;;;;;5.93;0.70;;;;;;;9.07;51.80;100197.94;8293189;28;20149;-73
2022/02/25 15:01:01;;;;;;;5.10;0.95;;;;;;;9.40;51.92;100191.50;8292957;28;20151;-73
2022/02/25 15:05:03;;;;;;;2.72;0.52;;;;;;;9.62;52.63;100198.69;8305805;28;20054;-73
2022/02/25 15:09:05;;;;;;;2.65;0.50;;;;;;;9.63;50.56;100192.66;8304028;28;20432;-74
2022/02/25 15:13:07;;;;;;;3.90;0.73;;;;;;;9.44;49.54;100189.81;8289787;28;20087;-74
2022/02/25 15:17:08;;;;;;;2.17;0.50;;;;;;;9.24;50.63;100195.59;8302093;28;20049;-74
2022/02/25 15:21:10;;;;;;;3.58;0.50;;;;;;;9.07;51.86;100208.31;8311285;28;20056;-73
2022/02/25 15:25:14;;;;;;;5.78;0.88;;;;;;;8.95;51.67;100202.94;8306176;28;20054;-73
2022/02/25 15:29:16;;;;;;;4.07;0.73;;;;;;;8.91;50.91;100198.56;8290447;28;20055;-73
2022/02/25 15:33:18;;;;;;;2.47;0.57;;;;;;;8.86;51.79;100204.53;8287995;28;20057;-73
2022/02/25 15:37:19;;;;;;;2.38;0.80;;;;;;;9.02;52.00;100198.75;8306678;28;20137;-72
2022/02/25 15:41:21;;;;;;;2.88;0.82;;;;;;;8.89;51.39;100194.22;8285920;28;20054;-73
2022/02/25 15:45:24;;;;;;;3.63;0.50;;;;;;;8.85;52.64;100203.66;8300845;28;20073;-73
2022/02/25 15:49:26;;;;;;;4.38;0.70;;;;;;;8.70;52.52;100196.50;8305288;28;20057;-73
2022/02/25 15:53:28;;;;;;;2.43;0.80;;;;;;;8.34;52.67;100195.91;8306846;28;20140;-73
2022/02/25 15:57:29;;;;;;;3.53;0.52;;;;;;;8.10;54.37;100193.72;8300274;28;20309;-73
2022/02/25 16:01:32;;;;;;;4.13;0.70;;;;;;;7.93;55.23;100197.72;8284467;28;20100;-73
2022/02/25 16:05:34;;;;;;;;;;;;;;;7.74;55.56;100201.66;8284649;28;20049;-73
2022/02/25 16:09:37;;;;;;;3.23;0.50;;;;;;;7.58;56.68;100215.97;8286930;28;20080;-73
2022/02/25 16:13:40;;;;;;;3.33;0.80;;;;;;;7.45;56.94;100235.50;8305068;28;20179;-73
2022/02/25 16:17:41;;;;;;;5.60;0.85;;;;;;;7.37;58.67;100239.66;8305181;28;20058;-73
2022/02/25 16:21:43;;;;;;;3.28;0.45;;;;;;;7.27;59.45;100261.81;8306465;28;20049;-72
2022/02/25 16:26:03;;;;;;;2.90;0.50;;;;;;;7.10;61.30;100291.53;8309525;28;20352;-72
2022/02/25 16:30:05;;;;;;;3.58;0.60;;;;;;;6.91;63.76;100297.09;8309412;28;20064;-72
2022/02/25 16:34:07;;;;;;;3.40;0.68;;;;;;;6.71;66.68;100296.59;8302379;28;20041;-72
2022/02/25 16:38:08;;;;;;;1.80;0.37;;;;;;;6.48;68.80;100297.69;8291873;28;20167;-72
2022/02/25 16:42:10;;;;;;;1.53;0.37;;;;;;;6.05;70.48;100307.69;8306194;28;20641;-72
2022/02/25 16:46:11;;;;;;;1.07;0.40;;;;;;;5.77;71.75;100348.94;8308337;28;20608;-71
2022/02/25 16:50:13;;;;;;;1.03;0.40;;;;;;;5.43;72.81;100317.00;8285660;28;20377;-72
2022/02/25 16:54:15;;;;;;;2.47;0.53;;;;;;;5.19;73.90;100344.53;8288093;28;20049;-72
2022/02/25 16:58:17;;;;;;;1.10;0.40;;;;;;;4.98;75.62;100352.41;8304233;28;20049;-72
2022/02/25 17:02:19;;;;;;;1.05;0.20;;;;;;;4.72;76.53;100358.38;8303040;28;20460;-72
2022/02/25 17:06:21;;;;;;;0.25;0.20;;;;;;;4.61;77.18;100368.28;8308141;28;20084;-72
2022/02/25 17:10:23;;;;;;;0.70;0.30;;;;;;;4.49;79.15;100375.59;8313278;28;20045;-72
2022/02/25 17:14:24;;;;;;;1.00;0.63;;;;;;;4.44;79.83;100393.41;8298088;28;20302;-72
2022/02/25 17:18:26;;;;;;;0.60;0.43;;;;;;;4.44;80.78;100393.41;8304373;28;20548;-71
2022/02/25 17:22:28;;;;;;;0.77;0.60;;;;;;;4.33;81.33;100391.28;8314520;28;20050;-71
2022/02/25 17:26:29;;;;;;;2.57;0.77;;;;;;;4.38;81.47;100393.19;8310636;28;20046;-71
2022/02/25 17:30:31;;;;;;;2.17;0.57;;;;;;;4.20;82.28;100398.53;8312879;28;20608;-71
2022/02/25 17:34:33;;;;;;;0.97;0.43;;;;;;;4.13;82.76;100412.00;8299340;28;20556;-71
2022/02/25 17:38:34;;;;;;;3.05;0.50;;;;;;;4.04;83.28;100415.91;8276069;28;20053;-71
2022/02/25 17:42:36;;;;;;;5.80;0.83;;;;;;;3.90;83.44;100411.09;8273067;28;20529;-71
2022/02/25 17:46:38;;;;;;;1.80;0.50;;;;;;;3.82;83.93;100420.22;8273063;28;20061;-71
2022/02/25 17:50:39;;;;;;;2.20;0.50;;;;;;;3.74;84.30;100413.88;8268210;28;20307;-71
2022/02/25 17:54:41;;;;;;;1.17;0.60;;;;;;;3.69;84.50;100423.09;8275907;28;20056;-71
2022/02/25 17:58:42;;;;;;;1.60;0.50;;;;;;;3.56;84.07;100432.00;8274382;28;20136;-71
2022/02/25 18:02:44;;;;;;;0.83;0.60;;;;;;;3.45;83.81;100438.41;8269706;28;20053;-71
2022/02/25 18:06:47;;;;;;;2.13;0.63;;;;;;;3.31;84.38;100444.66;8275146;28;20081;-71
2022/02/25 18:10:49;;;;;;;1.10;0.50;;;;;;;3.13;84.73;100454.16;8286957;28;20041;-71
2022/02/25 18:14:50;;;;;;;2.73;0.50;;;;;;;2.99;85.37;100459.56;8278578;28;20695;-71
2022/02/25 18:18:52;;;;;;;4.33;0.53;;;;;;;2.91;85.59;100457.50;8271174;28;20062;-71
2022/02/25 18:22:53;;;;;;;3.40;0.70;;;;;;;2.86;86.15;100462.41;8272318;28;20739;-72
2022/02/25 18:26:55;;;;;;;2.73;0.97;;;;;;;2.72;86.38;100464.41;8269657;28;20058;-72
2022/02/25 18:30:57;;;;;;;3.10;0.53;;;;;;;2.63;86.43;100475.91;8267458;28;20061;-71
2022/02/25 18:34:59;;;;;;;2.55;0.70;;;;;;;2.51;86.14;100473.69;8280187;28;20073;-71
2022/02/25 18:39:01;;;;;;;1.67;0.63;;;;;;;2.43;86.62;100488.72;8268874;28;20517;-72
2022/02/25 18:43:02;;;;;;;1.05;0.60;;;;;;;2.38;87.01;100482.50;8278163;28;20398;-72
2022/02/25 18:47:04;;;;;;;2.57;0.60;;;;;;;2.32;87.26;100477.09;8277517;28;20054;-71
2022/02/25 18:51:06;;;;;;;0.97;0.50;;;;;;;2.26;87.38;100478.50;8271858;28;20072;-71
2022/02/25 18:55:08;;;;;;;3.37;0.80;;;;;;;2.19;87.18;100491.84;8269452;28;20060;-72
2022/02/25 18:59:09;;;;;;;2.15;0.85;;;;;;;2.04;86.80;100494.56;8272274;28;20064;-72
2022/02/25 19:03:11;;;;;;;2.97;0.70;;;;;;;1.96;87.31;100504.44;8264495;28;20054;-71
2022/02/25 19:07:13;;;;;;;1.30;0.55;;;;;;;1.92;87.61;100514.47;8264509;28;20124;-71
2022/02/25 19:11:15;;;;;;;2.78;0.52;;;;;;;1.73;87.73;100513.56;8274072;28;20090;-72
2022/02/25 19:15:17;;;;;;;2.83;0.90;;;;;;;1.63;87.80;100521.63;8280048;28;20704;-72
2022/02/25 19:19:18;;;;;;;0.90;0.47;;;;;;;1.60;88.39;100525.69;8272872;28;20061;-71